Time,TemperatureF,DewpointF,PressureIn,WindDirection,WindDirectionDegrees,WindSpeedMPH,WindSpeedGustMPH,Humidity,HourlyPrecipIn,Conditions,Clouds,dailyrainin,SoftwareType,DateUTC
2013-04-11 00:00:00,62.5,59.2,29.97,ESE,116,2.0,9.0,89,0.00,,BKN100,0.00,VWS V14.01,2013-04-11 04:00:00,
2013-04-11 00:05:00,62.6,59.0,29.97,ESE,113,0.0,7.0,88,0.00,,BKN100,0.00,VWS V14.01,2013-04-11 04:05:00,
2013-04-11 00:10:00,62.7,59.1,29.98,ENE,77,2.0,7.0,88,0.00,,BKN100,0.00,VWS V14.01,2013-04-11 04:10:00,
2013-04-11 00:15:00,62.7,59.1,29.97,NE,47,3.0,4.0,88,0.00,,BKN100,0.00,VWS V14.01,2013-04-11 04:15:00,
2013-04-11 00:20:00,62.7,59.1,29.97,ESE,113,1.0,6.0,88,0.00,,BKN100,0.00,VWS V14.01,2013-04-11 04:20:00,
2013-04-11 00:25:00,62.6,59.0,29.96,ESE,110,0.0,6.0,88,0.00,,BKN100,0.00,VWS V14.01,2013-04-11 04:25:00,
2013-04-11 00:30:00,62.6,59.0,29.96,ESE,122,2.0,2.0,88,0.00,,BKN100,0.00,VWS V14.01,2013-04-11 04:30:00,
2013-04-11 00:35:00,62.6,59.0,29.95,East,98,1.0,6.0,88,0.00,,OVC100,0.00,VWS V14.01,2013-04-11 04:35:00,
2013-04-11 00:40:00,62.6,58.7,29.95,NE,52,0.0,6.0,87,0.00,,OVC100,0.00,VWS V14.01,2013-04-11 04:40:00,
2013-04-11 00:45:00,62.5,58.6,29.95,East,80,0.0,1.0,87,0.00,,OVC100,0.00,VWS V14.01,2013-04-11 04:45:00,
2013-04-11 00:50:00,62.5,58.6,29.95,ESE,110,3.0,4.0,87,0.00,,OVC100,0.00,VWS V14.01,2013-04-11 04:50:00,
2013-04-11 00:55:00,62.5,58.6,29.94,East,98,1.0,5.0,87,0.00,,OVC100,0.00,VWS V14.01,2013-04-11 04:55:00,
2013-04-11 01:00:00,62.6,58.7,29.94,SE,127,5.0,5.0,87,0.00,,OVC100,0.00,VWS V14.01,2013-04-11 05:00:00,
2013-04-11 01:05:00,62.6,58.7,29.94,SE,126,1.0,5.0,87,0.00,,OVC100,0.00,VWS V14.01,2013-04-11 05:05:00,
2013-04-11 01:10:00,62.5,58.6,29.94,SE,134,1.0,5.0,87,0.00,,OVC100,0.00,VWS V14.01,2013-04-11 05:10:00,
2013-04-11 01:15:00,62.5,58.6,29.94,ESE,115,3.0,3.0,87,0.00,,OVC100,0.00,VWS V14.01,2013-04-11 05:15:00,
2013-04-11 01:20:00,62.5,58.6,29.93,SSE,148,2.0,3.0,87,0.00,,OVC100,0.00,VWS V14.01,2013-04-11 05:20:00,
2013-04-11 01:25:00,62.5,58.6,29.93,SE,141,1.0,6.0,87,0.00,,OVC100,0.00,VWS V14.01,2013-04-11 05:25:00,
2013-04-11 01:30:00,62.4,58.5,29.92,ENE,68,2.0,6.0,87,0.00,,OVC100,0.00,VWS V14.01,2013-04-11 05:30:00,
2013-04-11 01:35:00,62.4,58.5,29.92,NE,47,1.0,6.0,87,0.00,,SCT100,0.00,VWS V14.01,2013-04-11 05:35:00,
2013-04-11 01:40:00,62.3,58.4,29.92,ESE,108,3.0,6.0,87,0.00,,SCT100,0.00,VWS V14.01,2013-04-11 05:40:00,
2013-04-11 01:45:00,62.3,58.4,29.92,East,100,0.0,6.0,87,0.00,,SCT100,0.00,VWS V14.01,2013-04-11 05:45:00,
2013-04-11 01:50:00,62.3,58.4,29.92,SE,143,2.0,5.0,87,0.00,,SCT100,0.00,VWS V14.01,2013-04-11 05:50:00,
2013-04-11 01:55:00,62.4,58.5,29.92,East,96,2.0,5.0,87,0.00,,SCT100,0.00,VWS V14.01,2013-04-11 05:55:00,
2013-04-11 02:00:00,62.7,58.5,29.92,East,79,2.0,5.0,86,0.00,,SCT100,0.00,VWS V14.01,2013-04-11 06:00:00,
2013-04-11 02:05:00,62.9,58.7,29.92,SE,141,2.0,3.0,86,0.00,,SCT100,0.00,VWS V14.01,2013-04-11 06:05:00,
2013-04-11 02:10:00,63.1,58.5,29.93,ESE,118,1.0,3.0,85,0.00,,SCT100,0.00,VWS V14.01,2013-04-11 06:10:00,
2013-04-11 02:15:00,63.2,58.6,29.95,West,260,5.0,10.0,85,0.00,,SCT100,0.00,VWS V14.01,2013-04-11 06:15:00,
2013-04-11 02:20:00,63.7,59.1,29.97,WNW,285,0.0,13.0,85,0.00,,SCT100,0.00,VWS V14.01,2013-04-11 06:20:00,
2013-04-11 02:25:00,64.4,59.5,29.97,NW,309,5.0,13.0,84,0.00,,SCT100,0.00,VWS V14.01,2013-04-11 06:25:00,
2013-04-11 02:30:00,65.0,59.4,29.97,West,278,6.0,13.0,82,0.00,,SCT100,0.00,VWS V14.01,2013-04-11 06:30:00,
2013-04-11 02:35:00,65.5,59.9,29.99,WSW,245,3.0,6.0,82,0.00,,BKN100,0.00,VWS V14.01,2013-04-11 06:35:00,
2013-04-11 02:40:00,65.2,60.2,29.98,NNW,345,2.0,10.0,84,0.06,,BKN100,0.06,VWS V14.01,2013-04-11 06:40:00,
2013-04-11 02:45:00,64.1,60.2,29.98,WNW,293,3.0,10.0,87,0.08,,BKN100,0.08,VWS V14.01,2013-04-11 06:45:00,
2013-04-11 02:50:00,63.4,60.1,29.98,WSW,257,1.0,7.0,89,0.08,,BKN100,0.08,VWS V14.01,2013-04-11 06:50:00,
2013-04-11 02:55:00,63.1,60.1,29.99,WSW,257,3.0,8.0,90,0.08,,BKN100,0.08,VWS V14.01,2013-04-11 06:55:00,
2013-04-11 03:00:00,62.9,59.9,29.99,West,274,1.0,8.0,90,0.09,,BKN100,0.09,VWS V14.01,2013-04-11 07:00:00,
2013-04-11 03:05:00,62.6,59.6,30.02,WNW,295,8.0,9.0,90,0.11,,BKN100,0.11,VWS V14.01,2013-04-11 07:05:00,
2013-04-11 03:10:00,62.2,59.5,30.01,WSW,245,7.0,9.0,91,0.14,,BKN100,0.14,VWS V14.01,2013-04-11 07:10:00,
2013-04-11 03:15:00,61.9,59.5,30.00,WSW,245,2.0,10.0,92,0.15,,BKN100,0.15,VWS V14.01,2013-04-11 07:15:00,
2013-04-11 03:20:00,61.7,59.4,30.00,West,271,6.0,6.0,92,0.16,,BKN100,0.16,VWS V14.01,2013-04-11 07:20:00,
2013-04-11 03:25:00,61.6,59.3,30.00,West,277,3.0,8.0,92,0.17,,BKN100,0.17,VWS V14.01,2013-04-11 07:25:00,
2013-04-11 03:30:00,61.5,58.8,30.01,West,278,4.0,8.0,91,0.17,,BKN100,0.17,VWS V14.01,2013-04-11 07:30:00,
2013-04-11 03:35:00,61.4,58.8,30.00,WNW,300,5.0,5.0,91,0.20,,,0.20,VWS V14.01,2013-04-11 07:35:00,
2013-04-11 03:40:00,61.1,58.8,30.01,WNW,296,4.0,7.0,92,0.24,,,0.24,VWS V14.01,2013-04-11 07:40:00,
2013-04-11 03:45:00,60.9,58.6,30.01,NW,313,4.0,9.0,92,0.28,,,0.28,VWS V14.01,2013-04-11 07:45:00,
2013-04-11 03:50:00,60.7,58.7,30.00,West,264,0.0,6.0,93,0.24,,RA,0.32,VWS V14.01,2013-04-11 07:50:00,
2013-04-11 03:55:00,60.6,58.6,29.99,NW,321,3.0,6.0,93,0.27,,RA,0.35,VWS V14.01,2013-04-11 07:55:00,
2013-04-11 04:00:00,60.4,58.4,29.98,NNW,339,6.0,6.0,93,0.30,,RA,0.38,VWS V14.01,2013-04-11 08:00:00,
2013-04-11 04:05:00,60.3,58.3,29.98,West,261,0.0,8.0,93,0.30,,RA,0.39,VWS V14.01,2013-04-11 08:05:00,
2013-04-11 04:10:00,60.2,58.2,29.98,SSW,193,0.0,8.0,93,0.31,,RA,0.40,VWS V14.01,2013-04-11 08:10:00,
2013-04-11 04:15:00,60.1,58.4,29.97,SSW,211,0.0,8.0,94,0.32,,RA,0.41,VWS V14.01,2013-04-11 08:15:00,
2013-04-11 04:20:00,60.0,58.3,29.98,SSW,211,0.0,0.0,94,0.27,,RA,0.42,VWS V14.01,2013-04-11 08:20:00,
2013-04-11 04:25:00,60.0,58.3,29.97,SSW,211,0.0,0.0,94,0.28,,RA,0.43,VWS V14.01,2013-04-11 08:25:00,
2013-04-11 04:30:00,59.9,58.2,29.97,SSW,210,0.0,0.0,94,0.29,,RA,0.44,VWS V14.01,2013-04-11 08:30:00,
2013-04-11 04:35:00,59.9,58.5,29.97,SSW,210,0.0,0.0,95,0.28,,RA,0.45,VWS V14.01,2013-04-11 08:35:00,
2013-04-11 04:40:00,59.8,58.4,29.97,SSW,210,0.0,0.0,95,0.28,,RA,0.45,VWS V14.01,2013-04-11 08:40:00,
2013-04-11 04:45:00,59.8,58.4,30.00,SSW,194,2.0,2.0,95,0.29,,RA,0.46,VWS V14.01,2013-04-11 08:45:00,
2013-04-11 04:50:00,59.8,58.4,29.99,NE,46,0.0,3.0,95,0.24,, +RA,0.52,VWS V14.01,2013-04-11 08:50:00,
2013-04-11 04:55:00,59.7,58.3,29.98,NE,49,0.0,3.0,95,0.27,, +RA,0.55,VWS V14.01,2013-04-11 08:55:00,
2013-04-11 05:00:00,59.7,58.3,29.98,East,91,1.0,3.0,95,0.29,, +RA,0.57,VWS V14.01,2013-04-11 09:00:00,
2013-04-11 05:05:00,59.6,58.2,29.97,WSW,239,0.0,0.0,95,0.20,, +RA,0.58,VWS V14.01,2013-04-11 09:05:00,
2013-04-11 05:10:00,59.6,58.2,29.96,WSW,239,0.0,1.0,95,0.21,, +RA,0.59,VWS V14.01,2013-04-11 09:10:00,
2013-04-11 05:15:00,59.6,58.5,29.97,SSW,195,1.0,1.0,96,0.22,, +RA,0.60,VWS V14.01,2013-04-11 09:15:00,
2013-04-11 05:20:00,59.6,58.5,29.97,SE,128,0.0,1.0,96,0.21,, +RA,0.62,VWS V14.01,2013-04-11 09:20:00,
2013-04-11 05:25:00,59.6,58.5,29.97,SE,128,0.0,1.0,96,0.22,, +RA,0.63,VWS V14.01,2013-04-11 09:25:00,
2013-04-11 05:30:00,59.5,58.4,29.97,SE,128,0.0,1.0,96,0.23,, +RA,0.64,VWS V14.01,2013-04-11 09:30:00,
2013-04-11 05:35:00,59.5,58.4,29.96,SE,128,0.0,0.0,96,0.21,,RA,0.65,VWS V14.01,2013-04-11 09:35:00,
2013-04-11 05:40:00,59.5,58.4,29.94,NNE,33,3.0,4.0,96,0.21,,RA,0.65,VWS V14.01,2013-04-11 09:40:00,
2013-04-11 05:45:00,59.5,58.4,29.93,SSE,155,0.0,4.0,96,0.22,,RA,0.66,VWS V14.01,2013-04-11 09:45:00,
2013-04-11 05:50:00,59.5,58.4,29.92,ESE,105,1.0,2.0,96,0.20,,RA,0.66,VWS V14.01,2013-04-11 09:50:00,
2013-04-11 05:55:00,59.6,58.5,29.93,South,179,5.0,9.0,96,0.20,,RA,0.66,VWS V14.01,2013-04-11 09:55:00,
2013-04-11 06:00:00,59.7,58.6,29.91,East,91,2.0,9.0,96,0.21,,RA,0.67,VWS V14.01,2013-04-11 10:00:00,
2013-04-11 06:05:00,59.9,58.5,29.91,West,263,3.0,3.0,95,0.10,,RA,0.67,VWS V14.01,2013-04-11 10:05:00,
2013-04-11 06:10:00,60.1,58.7,29.92,SSE,163,2.0,7.0,95,0.10,,RA,0.67,VWS V14.01,2013-04-11 10:10:00,
2013-04-11 06:15:00,60.2,58.5,29.94,SSE,155,1.0,7.0,94,0.10,,RA,0.67,VWS V14.01,2013-04-11 10:15:00,
2013-04-11 06:20:00,60.2,58.5,29.93,ESE,111,0.0,3.0,94,0.07,,RA,0.67,VWS V14.01,2013-04-11 10:20:00,
2013-04-11 06:25:00,60.2,58.5,29.93,SE,129,2.0,3.0,94,0.07,,RA,0.67,VWS V14.01,2013-04-11 10:25:00,
2013-04-11 06:30:00,60.2,58.5,29.92,NW,326,2.0,3.0,94,0.08,,RA,0.68,VWS V14.01,2013-04-11 10:30:00,
2013-04-11 06:35:00,60.1,58.4,29.92,WNW,300,1.0,2.0,94,0.04,,RA,0.68,VWS V14.01,2013-04-11 10:35:00,
2013-04-11 06:40:00,60.1,58.7,29.93,SE,131,1.0,4.0,95,0.04,,RA,0.68,VWS V14.01,2013-04-11 10:40:00,
2013-04-11 06:45:00,60.3,58.9,29.93,SE,128,2.0,4.0,95,0.04,,RA,0.68,VWS V14.01,2013-04-11 10:45:00,
2013-04-11 06:50:00,60.2,58.8,29.92,ESE,114,0.0,2.0,95,0.02,,SCT110,0.68,VWS V14.01,2013-04-11 10:50:00,
2013-04-11 06:55:00,60.1,58.7,29.91,ESE,104,0.0,5.0,95,0.02,,SCT110,0.68,VWS V14.01,2013-04-11 10:55:00,
2013-04-11 07:00:00,60.1,58.7,29.90,East,101,2.0,5.0,95,0.02,,RA,0.68,VWS V14.01,2013-04-11 11:00:00,
2013-04-11 07:05:00,60.1,58.7,29.92,ESE,106,2.0,2.0,95,0.01,,RA,0.68,VWS V14.01,2013-04-11 11:05:00,
2013-04-11 07:10:00,60.0,58.6,29.91,East,101,1.0,2.0,95,0.01,,RA,0.68,VWS V14.01,2013-04-11 11:10:00,
2013-04-11 07:15:00,60.0,58.6,29.91,SE,139,0.0,3.0,95,0.01,,RA,0.68,VWS V14.01,2013-04-11 11:15:00,
2013-04-11 07:20:00,59.9,58.5,29.91,ESE,118,2.0,4.0,95,0.01,,RA,0.68,VWS V14.01,2013-04-11 11:20:00,
2013-04-11 07:25:00,59.9,58.5,29.91,ESE,109,1.0,4.0,95,0.01,,RA,0.68,VWS V14.01,2013-04-11 11:25:00,
2013-04-11 07:30:00,60.0,58.6,29.91,ESE,117,1.0,4.0,95,0.01,,RA,0.68,VWS V14.01,2013-04-11 11:30:00,
2013-04-11 07:34:00,60.0,58.6,29.91,SE,127,0.0,6.0,95,0.00,,FEW100,0.68,VWS V14.01,2013-04-11 11:34:00,
2013-04-11 07:39:00,60.1,58.7,29.91,SE,127,1.0,6.0,95,0.00,,FEW100,0.68,VWS V14.01,2013-04-11 11:39:00,
2013-04-11 07:44:00,60.1,58.7,29.91,ESE,123,0.0,6.0,95,0.00,,FEW100,0.68,VWS V14.01,2013-04-11 11:44:00,
2013-04-11 07:49:00,60.2,58.8,29.90,East,89,3.0,4.0,95,0.00,,FEW100,0.68,VWS V14.01,2013-04-11 11:49:00,
2013-04-11 07:54:00,60.3,58.6,29.90,ESE,108,2.0,6.0,94,0.00,,FEW100,0.68,VWS V14.01,2013-04-11 11:54:00,
2013-04-11 07:59:00,60.3,58.6,29.90,SE,133,0.0,6.0,94,0.00,,FEW100,0.68,VWS V14.01,2013-04-11 11:59:00,
2013-04-11 08:04:00,60.3,58.6,29.90,ESE,114,0.0,3.0,94,0.00,,FEW100,0.68,VWS V14.01,2013-04-11 12:04:00,
2013-04-11 08:09:00,60.4,58.7,29.91,SE,132,2.0,7.0,94,0.00,,FEW100,0.68,VWS V14.01,2013-04-11 12:09:00,
2013-04-11 08:14:00,60.4,58.7,29.91,SE,124,1.0,7.0,94,0.00,,FEW100,0.68,VWS V14.01,2013-04-11 12:14:00,
2013-04-11 08:19:00,60.4,58.7,29.90,SSE,152,2.0,4.0,94,0.00,,FEW100,0.68,VWS V14.01,2013-04-11 12:19:00,
2013-04-11 08:24:00,60.4,58.7,29.90,East,93,2.0,4.0,94,0.00,,FEW100,0.68,VWS V14.01,2013-04-11 12:24:00,
2013-04-11 08:29:00,60.4,58.7,29.91,East,101,4.0,6.0,94,0.00,,FEW100,0.68,VWS V14.01,2013-04-11 12:29:00,
2013-04-11 08:34:00,60.4,58.7,29.91,East,98,3.0,6.0,94,0.00,,CLR,0.68,VWS V14.01,2013-04-11 12:34:00,
2013-04-11 08:39:00,60.5,58.8,29.90,SSE,155,3.0,6.0,94,0.00,,CLR,0.68,VWS V14.01,2013-04-11 12:39:00,
2013-04-11 08:44:00,60.5,58.8,29.91,SE,124,1.0,7.0,94,0.00,,CLR,0.68,VWS V14.01,2013-04-11 12:44:00,
2013-04-11 08:49:00,60.5,58.8,29.90,East,94,2.0,4.0,94,0.00,,CLR,0.68,VWS V14.01,2013-04-11 12:49:00,
2013-04-11 08:54:00,60.5,58.8,29.90,SE,144,3.0,4.0,94,0.00,,CLR,0.68,VWS V14.01,2013-04-11 12:54:00,
2013-04-11 08:59:00,60.6,58.9,29.90,ESE,108,1.0,4.0,94,0.00,,CLR,0.68,VWS V14.01,2013-04-11 12:59:00,
2013-04-11 09:04:00,60.7,59.0,29.91,ESE,111,2.0,6.0,94,0.00,,CLR,0.68,VWS V14.01,2013-04-11 13:04:00,
2013-04-11 09:09:00,60.8,58.8,29.91,ESE,123,3.0,7.0,93,0.00,,CLR,0.68,VWS V14.01,2013-04-11 13:09:00,
2013-04-11 09:14:00,60.9,58.9,29.92,East,97,3.0,7.0,93,0.00,,CLR,0.68,VWS V14.01,2013-04-11 13:14:00,
2013-04-11 09:19:00,61.1,59.1,29.91,ESE,121,3.0,8.0,93,0.00,,CLR,0.68,VWS V14.01,2013-04-11 13:19:00,
2013-04-11 09:24:00,61.2,59.2,29.91,SE,129,3.0,8.0,93,0.00,,CLR,0.68,VWS V14.01,2013-04-11 13:24:00,
2013-04-11 09:29:00,61.3,59.3,29.89,SE,139,4.0,8.0,93,0.00,,CLR,0.68,VWS V14.01,2013-04-11 13:29:00,
2013-04-11 09:34:00,61.4,59.4,29.91,SE,137,1.0,6.0,93,0.00,,CLR,0.68,VWS V14.01,2013-04-11 13:34:00,
2013-04-11 09:39:00,61.6,59.6,29.90,East,86,1.0,6.0,93,0.00,,CLR,0.68,VWS V14.01,2013-04-11 13:39:00,
2013-04-11 09:44:00,61.8,59.5,29.90,ENE,68,2.0,6.0,92,0.00,,CLR,0.68,VWS V14.01,2013-04-11 13:44:00,
2013-04-11 09:49:00,61.8,59.5,29.90,SE,132,0.0,4.0,92,0.00,,CLR,0.68,VWS V14.01,2013-04-11 13:49:00,
2013-04-11 09:54:00,61.9,59.5,29.90,East,97,1.0,4.0,92,0.00,,CLR,0.68,VWS V14.01,2013-04-11 13:54:00,
2013-04-11 09:59:00,62.0,59.7,29.89,North,11,2.0,5.0,92,0.00,,CLR,0.68,VWS V14.01,2013-04-11 13:59:00,
2013-04-11 10:04:00,62.2,59.8,29.89,SE,129,2.0,6.0,92,0.00,,CLR,0.68,VWS V14.01,2013-04-11 14:04:00,
2013-04-11 10:09:00,62.3,59.6,29.90,ESE,103,4.0,8.0,91,0.00,,CLR,0.68,VWS V14.01,2013-04-11 14:09:00,
2013-04-11 10:14:00,62.6,59.9,29.91,ESE,119,3.0,8.0,91,0.00,,CLR,0.68,VWS V14.01,2013-04-11 14:14:00,
2013-04-11 10:19:00,62.8,60.1,29.91,SE,145,6.0,8.0,91,0.00,,CLR,0.68,VWS V14.01,2013-04-11 14:19:00,
2013-04-11 10:24:00,63.0,60.0,29.91,East,80,2.0,9.0,90,0.00,,CLR,0.68,VWS V14.01,2013-04-11 14:24:00,
2013-04-11 10:29:00,63.2,60.2,29.91,SE,142,5.0,9.0,90,0.00,,CLR,0.68,VWS V14.01,2013-04-11 14:29:00,
2013-04-11 10:34:00,63.3,60.3,29.91,East,91,2.0,8.0,90,0.00,,CLR,0.68,VWS V14.01,2013-04-11 14:34:00,
2013-04-11 10:39:00,63.5,60.5,29.90,SE,127,4.0,10.0,90,0.00,,CLR,0.68,VWS V14.01,2013-04-11 14:39:00,
2013-04-11 10:44:00,63.7,60.7,29.90,South,186,4.0,10.0,90,0.00,,CLR,0.68,VWS V14.01,2013-04-11 14:44:00,
2013-04-11 10:49:00,64.0,60.7,29.90,ESE,110,3.0,5.0,89,0.00,,CLR,0.68,VWS V14.01,2013-04-11 14:49:00,
2013-04-11 10:54:00,64.2,60.6,29.90,ESE,121,1.0,10.0,88,0.00,,CLR,0.68,VWS V14.01,2013-04-11 14:54:00,
2013-04-11 10:59:00,64.3,61.0,29.90,ESE,104,2.0,10.0,89,0.00,,CLR,0.68,VWS V14.01,2013-04-11 14:59:00,
2013-04-11 11:04:00,64.2,60.6,29.91,SE,134,3.0,8.0,88,0.00,,CLR,0.68,VWS V14.01,2013-04-11 15:04:00,
2013-04-11 11:09:00,64.2,60.9,29.90,ESE,107,2.0,8.0,89,0.00,,CLR,0.68,VWS V14.01,2013-04-11 15:09:00,
2013-04-11 11:14:00,64.3,61.0,29.90,ESE,106,2.0,8.0,89,0.00,,CLR,0.68,VWS V14.01,2013-04-11 15:14:00,
2013-04-11 11:19:00,64.6,61.0,29.89,ESE,106,3.0,13.0,88,0.00,,CLR,0.68,VWS V14.01,2013-04-11 15:19:00,
2013-04-11 11:24:00,64.8,61.2,29.90,ENE,71,6.0,13.0,88,0.00,,CLR,0.68,VWS V14.01,2013-04-11 15:24:00,
2013-04-11 11:29:00,65.0,61.0,29.89,SE,143,3.0,13.0,87,0.00,,CLR,0.68,VWS V14.01,2013-04-11 15:29:00,
2013-04-11 11:34:00,65.1,61.1,29.90,SSE,158,2.0,8.0,87,0.00,,OVC049,0.68,VWS V14.01,2013-04-11 15:34:00,
2013-04-11 11:39:00,65.1,61.1,29.90,SE,125,5.0,8.0,87,0.00,,OVC049,0.68,VWS V14.01,2013-04-11 15:39:00,
2013-04-11 11:44:00,65.1,61.1,29.91,SSE,148,6.0,8.0,87,0.00,,OVC049,0.68,VWS V14.01,2013-04-11 15:44:00,
2013-04-11 11:49:00,65.2,61.2,29.91,SE,137,5.0,6.0,87,0.00,,OVC049,0.68,VWS V14.01,2013-04-11 15:49:00,
2013-04-11 11:54:00,65.5,61.5,29.91,SSE,148,3.0,11.0,87,0.00,,OVC049,0.68,VWS V14.01,2013-04-11 15:54:00,
2013-04-11 11:59:00,65.7,61.4,29.91,SE,128,2.0,11.0,86,0.00,,OVC049,0.68,VWS V14.01,2013-04-11 15:59:00,
2013-04-11 12:04:00,65.9,61.3,29.92,ESE,110,3.0,10.0,85,0.00,,OVC049,0.68,VWS V14.01,2013-04-11 16:04:00,
2013-04-11 12:09:00,66.1,61.5,29.92,SE,134,2.0,10.0,85,0.00,,OVC049,0.68,VWS V14.01,2013-04-11 16:09:00,
2013-04-11 12:14:00,66.4,61.8,29.91,South,183,8.0,10.0,85,0.00,,OVC049,0.68,VWS V14.01,2013-04-11 16:14:00,
2013-04-11 12:19:00,66.5,61.5,29.92,SSE,167,2.0,12.0,84,0.00,,OVC049,0.68,VWS V14.01,2013-04-11 16:19:00,
2013-04-11 12:24:00,66.4,61.1,29.91,SSE,153,5.0,12.0,83,0.00,,OVC049,0.68,VWS V14.01,2013-04-11 16:24:00,
2013-04-11 12:29:00,66.3,61.0,29.92,SE,143,4.0,12.0,83,0.00,,OVC049,0.68,VWS V14.01,2013-04-11 16:29:00,
2013-04-11 12:34:00,66.2,61.2,29.91,SE,138,5.0,7.0,84,0.00,,SCT055,0.68,VWS V14.01,2013-04-11 16:34:00,
2013-04-11 12:39:00,66.2,60.9,29.91,South,175,4.0,8.0,83,0.00,,SCT055,0.68,VWS V14.01,2013-04-11 16:39:00,
2013-04-11 12:44:00,66.4,61.4,29.90,South,179,3.0,8.0,84,0.00,,SCT055,0.68,VWS V14.01,2013-04-11 16:44:00,
2013-04-11 12:49:00,66.7,61.4,29.90,SE,131,4.0,6.0,83,0.00,,BKN032,0.68,VWS V14.01,2013-04-11 16:49:00,
2013-04-11 12:54:00,66.9,61.6,29.90,SE,131,2.0,9.0,83,0.00,,BKN032,0.68,VWS V14.01,2013-04-11 16:54:00,
2013-04-11 12:59:00,67.0,61.0,29.89,SSE,147,3.0,9.0,81,0.00,,BKN032,0.68,VWS V14.01,2013-04-11 16:59:00,
2013-04-11 13:04:00,67.1,61.1,29.90,SE,137,2.0,5.0,81,0.00,,BKN032,0.68,VWS V14.01,2013-04-11 17:04:00,
2013-04-11 13:09:00,67.1,61.1,29.90,SE,143,2.0,6.0,81,0.00,,BKN032,0.68,VWS V14.01,2013-04-11 17:09:00,
2013-04-11 13:14:00,66.9,60.9,29.89,SSE,163,5.0,8.0,81,0.00,,BKN032,0.68,VWS V14.01,2013-04-11 17:14:00,
2013-04-11 13:19:00,66.8,61.1,29.89,SSW,194,4.0,6.0,82,0.00,,BKN032,0.68,VWS V14.01,2013-04-11 17:19:00,
2013-04-11 13:24:00,66.9,61.2,29.89,SSE,155,2.0,6.0,82,0.00,,BKN032,0.68,VWS V14.01,2013-04-11 17:24:00,
2013-04-11 13:29:00,66.9,61.2,29.89,SE,134,1.0,8.0,82,0.00,,BKN032,0.68,VWS V14.01,2013-04-11 17:29:00,
2013-04-11 13:34:00,66.8,61.5,29.89,SE,143,2.0,6.0,83,0.00,,OVC028,0.68,VWS V14.01,2013-04-11 17:34:00,
2013-04-11 13:39:00,66.7,61.4,29.88,ESE,107,2.0,6.0,83,0.00,,OVC028,0.68,VWS V14.01,2013-04-11 17:39:00,
2013-04-11 13:44:00,66.7,61.4,29.88,SSE,158,2.0,6.0,83,0.00,,OVC028,0.68,VWS V14.01,2013-04-11 17:44:00,
2013-04-11 13:49:00,66.6,61.3,29.88,SSE,149,2.0,5.0,83,0.00,,OVC028,0.68,VWS V14.01,2013-04-11 17:49:00,
2013-04-11 13:54:00,66.4,61.1,29.88,SE,139,2.0,9.0,83,0.00,,OVC028,0.68,VWS V14.01,2013-04-11 17:54:00,
2013-04-11 13:59:00,66.3,61.0,29.88,SSE,159,5.0,9.0,83,0.00,,OVC028,0.68,VWS V14.01,2013-04-11 17:59:00,
2013-04-11 14:04:00,66.2,61.2,29.87,SSE,162,1.0,6.0,84,0.00,,OVC028,0.68,VWS V14.01,2013-04-11 18:04:00,
2013-04-11 14:09:00,66.1,61.1,29.87,SSE,152,1.0,6.0,84,0.00,,OVC028,0.68,VWS V14.01,2013-04-11 18:09:00,
2013-04-11 14:14:00,66.2,61.2,29.87,SSE,153,4.0,9.0,84,0.00,,OVC028,0.68,VWS V14.01,2013-04-11 18:14:00,
2013-04-11 14:19:00,66.3,60.3,29.86,SSE,152,6.0,9.0,81,0.00,,OVC028,0.68,VWS V14.01,2013-04-11 18:19:00,
2013-04-11 14:24:00,66.3,60.3,29.86,ENE,77,8.0,9.0,81,0.00,,OVC028,0.68,VWS V14.01,2013-04-11 18:24:00,
2013-04-11 14:29:00,66.1,60.1,29.86,SE,132,6.0,10.0,81,0.00,,OVC028,0.68,VWS V14.01,2013-04-11 18:29:00,
2013-04-11 14:34:00,65.9,60.3,29.86,SE,145,6.0,12.0,82,0.00,,-RA,0.68,VWS V14.01,2013-04-11 18:34:00,
2013-04-11 14:39:00,65.5,60.2,29.85,East,86,5.0,13.0,83,0.00,,-RA,0.68,VWS V14.01,2013-04-11 18:39:00,
2013-04-11 14:44:00,65.2,60.2,29.85,SE,144,5.0,13.0,84,0.01,,-RA,0.69,VWS V14.01,2013-04-11 18:44:00,
2013-04-11 14:50:00,65.0,60.4,29.85,SE,138,4.0,8.0,85,0.01,,-RA,0.69,VWS V14.01,2013-04-11 18:50:00,
2013-04-11 14:55:00,64.8,60.5,29.86,SE,138,8.0,9.0,86,0.01,,-RA,0.69,VWS V14.01,2013-04-11 18:55:00,
2013-04-11 14:59:00,64.6,60.3,29.86,ESE,108,3.0,11.0,86,0.01,,-RA,0.69,VWS V14.01,2013-04-11 18:59:00,
2013-04-11 15:04:00,64.5,60.5,29.86,ESE,116,1.0,8.0,87,0.02,,-RA,0.70,VWS V14.01,2013-04-11 19:04:00,
2013-04-11 15:10:00,64.4,60.5,29.86,SE,129,3.0,9.0,87,0.02,,-RA,0.70,VWS V14.01,2013-04-11 19:10:00,
2013-04-11 15:15:00,64.3,60.3,29.86,SE,141,3.0,9.0,87,0.02,,-RA,0.70,VWS V14.01,2013-04-11 19:15:00,
2013-04-11 15:19:00,64.2,60.3,29.86,SE,127,4.0,7.0,87,0.03,,-RA,0.71,VWS V14.01,2013-04-11 19:19:00,
2013-04-11 15:25:00,64.2,60.3,29.86,ESE,110,2.0,9.0,87,0.03,,-RA,0.71,VWS V14.01,2013-04-11 19:25:00,
2013-04-11 15:30:00,64.2,60.6,29.86,SE,129,2.0,9.0,88,0.03,,,0.71,VWS V14.01,2013-04-11 19:30:00,
2013-04-11 15:35:00,64.1,60.5,29.86,South,170,2.0,6.0,88,0.03,,-RA,0.71,VWS V14.01,2013-04-11 19:35:00,
2013-04-11 15:40:00,64.0,60.1,29.85,SSE,149,3.0,8.0,87,0.03,,-RA,0.71,VWS V14.01,2013-04-11 19:40:00,
2013-04-11 15:45:00,63.8,60.2,29.85,SE,138,2.0,8.0,88,0.04,,-RA,0.72,VWS V14.01,2013-04-11 19:45:00,
2013-04-11 15:50:00,63.7,60.4,29.85,SSE,160,2.0,4.0,89,0.03,,-RA,0.72,VWS V14.01,2013-04-11 19:50:00,
2013-04-11 15:55:00,63.5,60.2,29.85,SSE,163,1.0,4.0,89,0.04,,-RA,0.73,VWS V14.01,2013-04-11 19:55:00,
2013-04-11 16:00:00,63.4,60.4,29.85,SE,130,1.0,6.0,90,0.04,,-RA,0.73,VWS V14.01,2013-04-11 20:00:00,
2013-04-11 16:05:00,63.2,60.5,29.85,South,185,3.0,4.0,91,0.05,,-RA,0.74,VWS V14.01,2013-04-11 20:05:00,
2013-04-11 16:10:00,63.1,60.1,29.85,SSE,148,2.0,8.0,90,0.05,,-RA,0.74,VWS V14.01,2013-04-11 20:10:00,
2013-04-11 16:15:00,63.0,60.0,29.85,SSE,167,5.0,8.0,90,0.06,,-RA,0.75,VWS V14.01,2013-04-11 20:15:00,
2013-04-11 16:20:00,62.9,59.9,29.85,SE,132,1.0,5.0,90,0.05,,-RA,0.75,VWS V14.01,2013-04-11 20:20:00,
2013-04-11 16:25:00,62.9,60.2,29.85,SE,125,2.0,5.0,91,0.05,,-RA,0.75,VWS V14.01,2013-04-11 20:25:00,
2013-04-11 16:30:00,62.8,60.1,29.85,SSE,149,2.0,5.0,91,0.06,,-RA,0.76,VWS V14.01,2013-04-11 20:30:00,
2013-04-11 16:35:00,62.7,60.0,29.85,SSE,155,2.0,5.0,91,0.05,,-RA,0.76,VWS V14.01,2013-04-11 20:35:00,
2013-04-11 16:40:00,62.6,59.9,29.85,South,172,2.0,7.0,91,0.05,,-RA,0.76,VWS V14.01,2013-04-11 20:40:00,
2013-04-11 16:45:00,62.5,59.8,29.85,SSE,163,3.0,7.0,91,0.06,,-RA,0.77,VWS V14.01,2013-04-11 20:45:00,
2013-04-11 16:50:00,62.4,59.7,29.85,SSE,147,3.0,6.0,91,0.05,,-RA,0.77,VWS V14.01,2013-04-11 20:50:00,
2013-04-11 16:55:00,62.4,59.7,29.85,SE,146,2.0,6.0,91,0.06,,-RA,0.78,VWS V14.01,2013-04-11 20:55:00,
2013-04-11 17:00:00,62.3,60.0,29.85,SE,135,1.0,6.0,92,0.06,,-RA,0.78,VWS V14.01,2013-04-11 21:00:00,
2013-04-11 17:05:00,62.2,59.8,29.85,East,101,1.0,3.0,92,0.04,,-RA,0.78,VWS V14.01,2013-04-11 21:05:00,
2013-04-11 17:10:00,62.1,59.8,29.84,SE,134,2.0,5.0,92,0.05,,-RA,0.79,VWS V14.01,2013-04-11 21:10:00,
2013-04-11 17:15:00,62.1,59.8,29.84,SE,145,2.0,5.0,92,0.05,,-RA,0.79,VWS V14.01,2013-04-11 21:15:00,
2013-04-11 17:20:00,62.0,59.7,29.84,SSE,153,2.0,2.0,92,0.04,,-RA,0.79,VWS V14.01,2013-04-11 21:20:00,
2013-04-11 17:25:00,62.0,59.7,29.84,ESE,115,0.0,3.0,92,0.05,,-RA,0.80,VWS V14.01,2013-04-11 21:25:00,
2013-04-11 17:29:00,61.9,59.5,29.83,South,186,2.0,4.0,92,0.05,,-RA,0.80,VWS V14.01,2013-04-11 21:29:00,
2013-04-11 17:34:00,61.8,59.5,29.83,ESE,118,1.0,4.0,92,0.05,,-RA,0.81,VWS V14.01,2013-04-11 21:34:00,
2013-04-11 17:39:00,61.7,59.4,29.83,SSE,159,2.0,4.0,92,0.05,,-RA,0.81,VWS V14.01,2013-04-11 21:39:00,
2013-04-11 17:44:00,61.6,59.3,29.83,SE,143,0.0,4.0,92,0.06,,-RA,0.82,VWS V14.01,2013-04-11 21:44:00,
2013-04-11 17:49:00,61.5,59.2,29.83,SE,139,2.0,5.0,92,0.05,,-RA,0.82,VWS V14.01,2013-04-11 21:49:00,
2013-04-11 17:54:00,61.5,59.5,29.82,SSE,161,2.0,5.0,93,0.05,,-RA,0.82,VWS V14.01,2013-04-11 21:54:00,
2013-04-11 17:59:00,61.4,59.4,29.82,SE,134,1.0,5.0,93,0.06,,-RA,0.83,VWS V14.01,2013-04-11 21:59:00,
2013-04-11 18:04:00,61.3,59.3,29.81,East,85,4.0,4.0,93,0.05,,-RA,0.83,VWS V14.01,2013-04-11 22:04:00,
2013-04-11 18:09:00,61.3,59.3,29.81,SE,125,1.0,4.0,93,0.06,,-RA,0.84,VWS V14.01,2013-04-11 22:09:00,
2013-04-11 18:14:00,61.2,59.2,29.81,ESE,115,0.0,4.0,93,0.06,,-RA,0.84,VWS V14.01,2013-04-11 22:14:00,
2013-04-11 18:19:00,61.1,59.4,29.80,ESE,115,0.0,4.0,94,0.05,,-RA,0.84,VWS V14.01,2013-04-11 22:19:00,
2013-04-11 18:24:00,60.9,59.2,29.79,East,85,2.0,4.0,94,0.06,,-RA,0.85,VWS V14.01,2013-04-11 22:24:00,
2013-04-11 18:29:00,60.9,59.2,29.79,East,101,4.0,6.0,94,0.06,,-RA,0.85,VWS V14.01,2013-04-11 22:29:00,
2013-04-11 18:34:00,60.8,59.1,29.79,SE,146,2.0,5.0,94,0.05,,-RA,0.85,VWS V14.01,2013-04-11 22:34:00,
2013-04-11 18:39:00,60.7,59.0,29.81,South,171,2.0,5.0,94,0.06,,-RA,0.86,VWS V14.01,2013-04-11 22:39:00,
2013-04-11 18:44:00,60.8,59.1,29.81,SE,142,3.0,8.0,94,0.07,,-RA,0.87,VWS V14.01,2013-04-11 22:44:00,
2013-04-11 18:49:00,60.8,59.1,29.82,South,170,2.0,4.0,94,0.07,,OVC023,0.89,VWS V14.01,2013-04-11 22:49:00,
2013-04-11 18:54:00,60.7,59.0,29.82,South,180,4.0,6.0,94,0.08,,OVC023,0.90,VWS V14.01,2013-04-11 22:54:00,
2013-04-11 18:59:00,60.6,58.6,29.82,SE,138,5.0,9.0,93,0.09,,OVC023,0.91,VWS V14.01,2013-04-11 22:59:00,
2013-04-11 19:04:00,60.5,58.2,29.81,SSE,166,3.0,6.0,92,0.08,,OVC023,0.91,VWS V14.01,2013-04-11 23:04:00,
2013-04-11 19:09:00,60.4,58.1,29.81,SE,134,5.0,10.0,92,0.09,,OVC023,0.92,VWS V14.01,2013-04-11 23:09:00,
2013-04-11 19:14:00,60.2,57.9,29.83,South,181,5.0,10.0,92,0.09,,OVC023,0.92,VWS V14.01,2013-04-11 23:14:00,
2013-04-11 19:19:00,60.1,57.8,29.83,SE,140,2.0,7.0,92,0.09,,OVC023,0.93,VWS V14.01,2013-04-11 23:19:00,
2013-04-11 19:24:00,59.9,57.3,29.83,SE,141,3.0,8.0,91,0.09,,OVC023,0.93,VWS V14.01,2013-04-11 23:24:00,
2013-04-11 19:30:00,59.8,57.5,29.83,ESE,105,2.0,8.0,92,0.09,,OVC023,0.93,VWS V14.01,2013-04-11 23:30:00,
2013-04-11 19:35:00,59.6,57.3,29.82,SE,138,1.0,5.0,92,0.08,, +RA,0.93,VWS V14.01,2013-04-11 23:35:00,
2013-04-11 19:40:00,59.5,57.2,29.81,ESE,122,2.0,5.0,92,0.08,, +RA,0.93,VWS V14.01,2013-04-11 23:40:00,
2013-04-11 19:45:00,59.5,57.5,29.80,ESE,111,2.0,5.0,93,0.08,, +RA,0.93,VWS V14.01,2013-04-11 23:45:00,
2013-04-11 19:50:00,59.4,57.4,29.79,SE,127,1.0,4.0,93,0.06,,-RA,0.93,VWS V14.01,2013-04-11 23:50:00,
2013-04-11 19:55:00,59.3,57.3,29.79,SE,144,1.0,4.0,93,0.06,,-RA,0.93,VWS V14.01,2013-04-11 23:55:00,
2013-04-11 20:00:00,59.3,57.3,29.78,SSW,207,1.0,4.0,93,0.06,,-RA,0.93,VWS V14.01,2013-04-12 00:00:00,
2013-04-11 20:05:00,59.2,57.2,29.78,ESE,108,0.0,2.0,93,0.02,,-RA,0.93,VWS V14.01,2013-04-12 00:05:00,
2013-04-11 20:10:00,59.1,57.1,29.77,SSW,194,0.0,2.0,93,0.02,,-RA,0.93,VWS V14.01,2013-04-12 00:10:00,
2013-04-11 20:15:00,59.1,57.4,29.79,SW,214,3.0,3.0,94,0.02,,-RA,0.93,VWS V14.01,2013-04-12 00:15:00,
2013-04-11 20:20:00,58.6,55.7,29.81,SW,236,3.0,12.0,90,0.01,,,0.93,VWS V14.01,2013-04-12 00:20:00,
2013-04-11 20:25:00,57.2,54.0,29.80,WNW,288,4.0,12.0,89,0.01,,,0.93,VWS V14.01,2013-04-12 00:25:00,
2013-04-11 20:30:00,56.4,53.5,29.81,WSW,239,2.0,12.0,90,0.01,,,0.93,VWS V14.01,2013-04-12 00:30:00,
2013-04-11 20:35:00,55.8,53.2,29.81,SW,215,3.0,12.0,91,0.01,,,0.94,VWS V14.01,2013-04-12 00:35:00,
2013-04-11 20:40:00,55.4,53.1,29.80,WNW,285,1.0,12.0,92,0.02,,,0.95,VWS V14.01,2013-04-12 00:40:00,
2013-04-11 20:45:00,54.9,52.6,29.80,WNW,297,3.0,12.0,92,0.04,,,0.97,VWS V14.01,2013-04-12 00:45:00,
2013-04-11 20:50:00,54.6,52.6,29.79,West,271,1.0,6.0,93,0.05,,,0.98,VWS V14.01,2013-04-12 00:50:00,
2013-04-11 20:55:00,54.5,52.8,29.79,WNW,283,0.0,6.0,94,0.05,,,0.98,VWS V14.01,2013-04-12 00:55:00,
2013-04-11 21:00:00,54.3,52.6,29.79,West,269,1.0,6.0,94,0.05,,,0.98,VWS V14.01,2013-04-12 01:00:00,
2013-04-11 21:05:00,54.3,52.6,29.80,West,261,1.0,3.0,94,0.06,,,0.99,VWS V14.01,2013-04-12 01:05:00,
2013-04-11 21:10:00,54.3,52.9,29.78,NW,306,2.0,3.0,95,0.06,,,0.99,VWS V14.01,2013-04-12 01:10:00,
2013-04-11 21:15:00,54.2,52.8,29.79,NW,313,0.0,4.0,95,0.06,,,0.99,VWS V14.01,2013-04-12 01:15:00,
2013-04-11 21:20:00,54.2,52.8,29.81,WSW,257,1.0,2.0,95,0.06,,,0.99,VWS V14.01,2013-04-12 01:20:00,
2013-04-11 21:25:00,54.1,52.7,29.80,WNW,301,3.0,3.0,95,0.06,,,0.99,VWS V14.01,2013-04-12 01:25:00,
2013-04-11 21:30:00,54.1,52.7,29.80,NW,326,1.0,4.0,95,0.06,,,0.99,VWS V14.01,2013-04-12 01:30:00,
2013-04-11 21:35:00,54.0,52.3,29.80,WNW,288,2.0,4.0,94,0.06,,OVC023,0.99,VWS V14.01,2013-04-12 01:35:00,
2013-04-11 21:40:00,53.9,52.5,29.79,West,275,2.0,4.0,95,0.07,,OVC023,1.00,VWS V14.01,2013-04-12 01:40:00,
2013-04-11 21:45:00,53.8,52.4,29.80,WNW,300,2.0,4.0,95,0.07,,OVC023,1.00,VWS V14.01,2013-04-12 01:45:00,
2013-04-11 21:50:00,53.6,51.9,29.79,WSW,249,3.0,5.0,94,0.03,,OVC023,1.00,VWS V14.01,2013-04-12 01:50:00,
2013-04-11 21:55:00,53.4,51.7,29.81,WNW,282,2.0,7.0,94,0.04,,OVC023,1.01,VWS V14.01,2013-04-12 01:55:00,
2013-04-11 22:00:00,53.1,51.4,29.80,West,275,4.0,7.0,94,0.04,,OVC023,1.01,VWS V14.01,2013-04-12 02:00:00,
2013-04-11 22:05:00,52.9,51.2,29.80,SW,226,2.0,6.0,94,0.04,,OVC023,1.02,VWS V14.01,2013-04-12 02:05:00,
2013-04-11 22:10:00,52.8,51.1,29.81,WSW,244,1.0,7.0,94,0.04,,OVC023,1.02,VWS V14.01,2013-04-12 02:10:00,
2013-04-11 22:15:00,52.8,51.4,29.82,WSW,255,2.0,7.0,95,0.04,,OVC023,1.02,VWS V14.01,2013-04-12 02:15:00,
2013-04-11 22:20:00,52.7,51.3,29.82,SW,231,1.0,7.0,95,0.04,,OVC023,1.03,VWS V14.01,2013-04-12 02:20:00,
2013-04-11 22:25:00,52.7,51.3,29.82,WNW,283,3.0,7.0,95,0.04,,OVC023,1.03,VWS V14.01,2013-04-12 02:25:00,
2013-04-11 22:30:00,52.6,51.2,29.82,West,271,1.0,7.0,95,0.04,,OVC023,1.03,VWS V14.01,2013-04-12 02:30:00,
2013-04-11 22:35:00,52.6,51.2,29.82,SW,222,0.0,2.0,95,0.04,,-RA,1.03,VWS V14.01,2013-04-12 02:35:00,
2013-04-11 22:40:00,52.5,51.1,29.82,SW,233,1.0,4.0,95,0.04,,-RA,1.03,VWS V14.01,2013-04-12 02:40:00,
2013-04-11 22:45:00,52.5,51.1,29.82,WSW,250,0.0,4.0,95,0.04,,-RA,1.03,VWS V14.01,2013-04-12 02:45:00,
2013-04-11 22:50:00,52.4,51.0,29.82,NW,305,1.0,4.0,95,0.03,,-RA,1.03,VWS V14.01,2013-04-12 02:50:00,
2013-04-11 22:55:00,52.4,51.0,29.83,WSW,242,3.0,4.0,95,0.04,,-RA,1.04,VWS V14.01,2013-04-12 02:55:00,
2013-04-11 23:00:00,52.3,50.9,29.83,NW,314,1.0,4.0,95,0.04,,-RA,1.04,VWS V14.01,2013-04-12 03:00:00,
2013-04-11 23:05:00,52.1,50.7,29.83,West,259,3.0,5.0,95,0.03,,-RA,1.04,VWS V14.01,2013-04-12 03:05:00,
2013-04-11 23:10:00,51.9,50.5,29.83,WNW,291,5.0,5.0,95,0.03,,-RA,1.04,VWS V14.01,2013-04-12 03:10:00,
2013-04-11 23:15:00,51.8,50.4,29.82,WSW,243,5.0,6.0,95,0.03,,-RA,1.04,VWS V14.01,2013-04-12 03:15:00,
2013-04-11 23:20:00,51.7,50.3,29.82,WNW,293,2.0,7.0,95,0.03,,-RA,1.05,VWS V14.01,2013-04-12 03:20:00,
2013-04-11 23:25:00,51.6,50.2,29.82,WNW,293,6.0,8.0,95,0.03,,-RA,1.05,VWS V14.01,2013-04-12 03:25:00,
2013-04-11 23:30:00,51.4,50.0,29.82,WSW,255,4.0,8.0,95,0.03,,-RA,1.05,VWS V14.01,2013-04-12 03:30:00,
2013-04-11 23:35:00,51.3,49.9,29.82,West,273,1.0,5.0,95,0.02,,-RA,1.05,VWS V14.01,2013-04-12 03:35:00,
2013-04-11 23:40:00,51.2,49.8,29.82,West,263,4.0,10.0,95,0.02,,-RA,1.05,VWS V14.01,2013-04-12 03:40:00,
2013-04-11 23:45:00,51.0,49.6,29.84,West,270,4.0,14.0,95,0.02,,-RA,1.05,VWS V14.01,2013-04-12 03:45:00,
2013-04-11 23:50:00,50.8,49.4,29.83,NW,307,1.0,8.0,95,0.03,,-RA,1.06,VWS V14.01,2013-04-12 03:50:00,
2013-04-11 23:55:00,50.7,49.3,29.83,WNW,302,5.0,8.0,95,0.05,,-RA,1.08,VWS V14.01,2013-04-12 03:55:00,
2013-04-11 23:59:00,50.3,48.9,29.83,West,265,7.0,10.0,95,0.06,,-RA,1.09,VWS V14.01,2013-04-12 03:59:00,